Flight Track Log - Related Links

Times and Time Zones

All times are in EDT time to prevent confusion due to time zone crossing. See the PVL1910 flight status page for this flight to view local times or setup timezone preferences in your user account.

Time Position Orientation Groundspeed Altitude Reporting Facility
EDT Latitude Longitude Course Direction KTS MPH feet Rate Location/Type
Thu 02:16:43 PM 45.4500 -73.7167 29° Northeast 100 115 700  Level Montreal Center
Thu 02:17:43 PM 45.4500 -73.7667 270° West 130 150 2,900 1,950 Climbing Montreal Center
Thu 02:18:43 PM 45.4833 -73.8167 314° West 130 150 4,600 1,700 Climbing Montreal Center
Thu 02:19:43 PM 45.5167 -73.8167 360° North 190 219 6,300 1,650 Climbing Montreal Center
Thu 02:20:43 PM 45.5667 -73.7833 25° Northeast 200 230 7,900 1,750 Climbing Montreal Center
Thu 02:21:00 PM 45.8340 -73.4361 29° Northeast  Level FlightAware Approximate
Thu 02:21:43 PM 45.6167 -73.7333 35° Northeast 200 230 9,800  Level Montreal Center
Thu 02:22:43 PM 45.6667 -73.6833 35° Northeast 210 242 11,300 1,600 Climbing Montreal Center
Thu 02:23:43 PM 45.7167 -73.6333 35° Northeast 210 242 13,000 1,500 Climbing Montreal Center
Thu 02:24:43 PM 45.7667 -73.5833 35° Northeast 220 253 14,300 1,200 Climbing Montreal Center
Thu 02:25:43 PM 45.8167 -73.5333 35° Northeast 230 265 15,400 1,150 Climbing Montreal Center
Thu 02:26:43 PM 45.8667 -73.4833 35° Northeast 230 265 16,600 1,100 Climbing Montreal Center
Thu 02:27:43 PM 45.9167 -73.4333 35° Northeast 230 265 17,600 1,100 Climbing Montreal Center
Thu 02:28:43 PM 45.9833 -73.3667 35° Northeast 240 276 18,800 1,050 Climbing Montreal Center
Thu 02:29:43 PM 46.0167 -73.2833 60° Northeast 250 288 19,700 900 Climbing Montreal Center
Thu 02:30:43 PM 46.0667 -73.2167 43° Northeast 240 276 20,600 650 Climbing Montreal Center
Thu 02:31:43 PM 46.1000 -73.1333 60° Northeast 250 288 21,000 200 Climbing Montreal Center
Thu 02:32:43 PM 46.1500 -73.0333 54° Northeast 270 311 21,000  Level Montreal Center
Thu 02:33:43 PM 46.2000 -72.9667 43° Northeast 280 322 21,000  Level Montreal Center
Thu 02:34:43 PM 46.2500 -72.8667 54° Northeast 290 334 21,000  Level Montreal Center
Thu 02:35:43 PM 46.3000 -72.7667 54° Northeast 290 334 21,000  Level Montreal Center
Thu 02:36:43 PM 46.3500 -72.6833 49° Northeast 290 334 21,000  Level Montreal Center
Thu 02:37:43 PM 46.4167 -72.5833 46° Northeast 290 334 21,000  Level Montreal Center
Thu 02:38:43 PM 46.4500 -72.4833 64° Northeast 290 334 21,000  Level Montreal Center
Thu 02:39:43 PM 46.5000 -72.4167 43° Northeast 290 334 21,000  Level Montreal Center
Thu 02:40:43 PM 46.5500 -72.3000 58° Northeast 290 334 21,000  Level Montreal Center
Thu 02:41:43 PM 46.6000 -72.2333 42° Northeast 290 334 21,000  Level Montreal Center
Thu 02:42:43 PM 46.6667 -72.1333 46° Northeast 290 334 21,000  Level Montreal Center
Thu 02:43:43 PM 46.7167 -72.0333 54° Northeast 290 334 21,000  Level Montreal Center
Thu 02:44:43 PM 46.7667 -71.9500 49° Northeast 290 334 21,000  Level Montreal Center
Thu 02:45:43 PM 46.8000 -71.8500 64° Northeast 290 334 21,000  Level Montreal Center
Thu 02:46:43 PM 46.8500 -71.7500 54° Northeast 290 334 21,000  Level Montreal Center
Thu 02:47:43 PM 46.9167 -71.6667 40° Northeast 290 334 21,000  Level Montreal Center
Thu 02:48:43 PM 46.9667 -71.5667 54° Northeast 290 334 21,000  Level Montreal Center
Thu 02:49:43 PM 47.0000 -71.4667 64° Northeast 290 334 21,000  Level Montreal Center
Thu 02:50:43 PM 47.0667 -71.3500 50° Northeast 290 334 21,000  Level Montreal Center
Thu 02:51:43 PM 47.1167 -71.2833 42° Northeast 290 334 21,000  Level Montreal Center
Thu 02:52:43 PM 47.1667 -71.1833 54° Northeast 290 334 21,000  Level Montreal Center
Thu 02:53:43 PM 47.2167 -71.0667 58° Northeast 290 334 21,000  Level Montreal Center
Thu 02:54:43 PM 47.2500 -71.0000 54° Northeast 300 345 21,000  Level Montreal Center
Thu 02:55:43 PM 47.3167 -70.8833 50° Northeast 290 334 21,000  Level Montreal Center
Thu 02:56:43 PM 47.3667 -70.7833 54° Northeast 290 334 21,000  Level Montreal Center
Thu 02:57:43 PM 47.4167 -70.7000 48° Northeast 290 334 21,000  Level Montreal Center
Thu 02:58:43 PM 47.4500 -70.6000 64° Northeast 290 334 21,000  Level Montreal Center
Thu 02:59:43 PM 47.5000 -70.5000 53° Northeast 300 345 21,000  Level Montreal Center
Thu 03:00:43 PM 47.5667 -70.4167 40° Northeast 290 334 21,000  Level Montreal Center
Thu 03:01:43 PM 47.6167 -70.3167 53° Northeast 290 334 21,000  Level Montreal Center
Thu 03:02:43 PM 47.6667 -70.2333 48° Northeast 290 334 21,000  Level Montreal Center
Thu 03:03:43 PM 47.7333 -70.1500 40° Northeast 290 334 21,000  Level Montreal Center
Thu 03:04:43 PM 47.8000 -70.0667 40° Northeast 280 322 21,000  Level Montreal Center
Thu 03:05:43 PM 47.8500 -69.9833 48° Northeast 280 322 21,000  Level Montreal Center
Thu 03:06:43 PM 47.9000 -69.9000 48° Northeast 290 334 21,000  Level Montreal Center
Thu 03:07:43 PM 47.9667 -69.8167 40° Northeast 290 334 21,000  Level Montreal Center
Thu 03:08:43 PM 48.0167 -69.7667 34° Northeast 280 322 21,000  Level Montreal Center
Thu 03:09:43 PM 48.0833 -69.6833 40° Northeast 280 322 21,000  Level Montreal Center
Thu 03:10:43 PM 48.1500 -69.6000 40° Northeast 280 322 21,000  Level Montreal Center
Thu 03:11:43 PM 48.1833 -69.5167 59° Northeast 280 322 21,000  Level Montreal Center
Thu 03:12:43 PM 48.2500 -69.4333 40° Northeast 280 322 21,000  Level Montreal Center
Thu 03:13:43 PM 48.3167 -69.3500 40° Northeast 280 322 21,000  Level Montreal Center
Thu 03:14:43 PM 48.3833 -69.2500 45° Northeast 280 322 21,000  Level Montreal Center
Thu 03:15:43 PM 48.4167 -69.1667 59° Northeast 280 322 21,000  Level Montreal Center
Thu 03:16:43 PM 48.4833 -69.1167 26° Northeast 280 322 21,000  Level Montreal Center
Thu 03:17:43 PM 48.5500 -69.0333 40° Northeast 280 322 21,000  Level Montreal Center
Thu 03:18:43 PM 48.6000 -68.9500 48° Northeast 280 322 21,000  Level Montreal Center
Thu 03:19:43 PM 48.6500 -68.8667 48° Northeast 280 322 21,000  Level Montreal Center
Thu 03:20:43 PM 48.7167 -68.7833 40° Northeast 280 322 21,000  Level Montreal Center
Thu 03:21:43 PM 48.7833 -68.6833 45° Northeast 280 322 21,000  Level Montreal Center
Thu 03:22:43 PM 48.8167 -68.6333 45° Northeast 280 322 21,000  Level Montreal Center
Thu 03:23:43 PM 48.8833 -68.5167 49° Northeast 290 334 21,000  Level Montreal Center
Thu 03:24:43 PM 48.9500 -68.4500 33° Northeast 290 334 21,000  Level Montreal Center
Thu 03:25:43 PM 49.0167 -68.3667 39° Northeast 290 334 21,000  Level Montreal Center
Thu 03:26:43 PM 49.0500 -68.2833 59° Northeast 290 334 21,000  Level Montreal Center
Thu 03:27:43 PM 49.1167 -68.2000 39° Northeast 290 334 21,000  Level Montreal Center
Thu 03:28:43 PM 49.1833 -68.1167 39° Northeast 290 334 21,000  Level Montreal Center
Thu 03:29:43 PM 49.2333 -68.0167 53° Northeast 290 334 21,000  Level Montreal Center
Thu 03:30:43 PM 49.3000 -67.9333 39° Northeast 290 334 21,000  Level Montreal Center
Thu 03:31:43 PM 49.3500 -67.8500 47° Northeast 290 334 21,000 -200 Level Montreal Center
Thu 03:32:43 PM 49.4000 -67.7333 57° Northeast 290 334 20,600 -900 Descending Montreal Center
Thu 03:33:43 PM 49.4667 -67.6500 39° Northeast 300 345 19,200 -1,650 Descending Montreal Center
Thu 03:34:43 PM 49.5167 -67.5667 47° Northeast 310 357 17,300 -1,550 Descending Montreal Center
Thu 03:35:43 PM 49.5833 -67.4667 44° Northeast 310 357 16,100 -900 Descending Montreal Center
Thu 03:36:43 PM 49.6500 -67.3833 39° Northeast 300 345 15,500 -1,050 Descending Montreal Center
Thu 03:37:43 PM 49.7000 -67.2667 56° Northeast 300 345 14,000 -1,450 Descending Montreal Center
Thu 03:38:43 PM 49.7500 -67.1833 47° Northeast 300 345 12,600 -1,400 Descending Montreal Center
Thu 03:39:43 PM 49.8167 -67.0833 44° Northeast 280 322 11,200 -1,250 Descending Montreal Center
Thu 03:40:43 PM 49.8500 -67.0333 44° Northeast 270 311 10,100 -1,200 Descending Montreal Center
Thu 03:41:43 PM 49.9167 -66.9333 44° Northeast 270 311 8,800 -1,200 Descending Montreal Center
Thu 03:42:43 PM 49.9667 -66.8500 47° Northeast 260 299 7,700 -1,050 Descending Montreal Center
Thu 03:43:43 PM 50.0000 -66.7833 52° Northeast 240 276 6,700 -1,000 Descending Montreal Center
Thu 03:44:43 PM 50.0500 -66.7000 47° Northeast 230 265 5,700 -800 Descending Montreal Center
Thu 03:45:43 PM 50.1000 -66.6333 41° Northeast 220 253 5,100 -550 Descending Montreal Center
Thu 03:46:43 PM 50.1167 -66.5833 63° Northeast 190 219 4,600 -550 Descending Montreal Center
Thu 03:47:43 PM 50.1333 -66.5333 63° Northeast 160 184 4,000 -750 Descending Montreal Center
Thu 03:48:43 PM 50.1500 -66.4667 69° East 140 161 3,100 -800 Descending Montreal Center
Thu 03:49:43 PM 50.1667 -66.4167 62° Northeast 140 161 2,400 -650 Descending Montreal Center
Thu 03:50:43 PM 50.1667 -66.3667 90° East 110 127 1,800 -500 Descending Montreal Center
Thu 03:51:43 PM 50.1833 -66.3333 52° Northeast 100 115 1,400 -500 Descending Montreal Center
Thu 03:52:43 PM 50.2000 -66.2667 69° East 100 115 800 -600 Descending Montreal Center
Thu 03:53:43 PM 50.2167 -66.2500 33° Northeast 100 115 200 -600 Descending Montreal Center

Login

Don't have an account? Register now (free) for customized features, flight alerts, and more!